This is the latest recevied weather packets stored in our database for station/object N5VIS. If no packets are shown the sender has not sent any weather packets the latest 10 day(s).
| Time | Temp. | Humidity | Pressure | Rain* | Wind** | Luminosity | Snow |
|---|---|---|---|---|---|---|---|
| 1777994003 | 23.33° C | 80% | 1016 hPa | 0 mm | - | - | - |
| 1777993700 | 23.33° C | 78% | 1016.1 hPa | 0 mm | - | - | - |
| 1777993397 | 23.33° C | 77% | 1016.2 hPa | 0 mm | - | - | - |
| 1777993097 | 23.33° C | 76% | 1016 hPa | 0 mm | - | - | - |
| 1777992796 | 23.33° C | 76% | 1016.1 hPa | 0 mm | - | - | - |
| 1777992493 | 22.78° C | 78% | 1016.1 hPa | 0 mm | - | - | - |
| 1777992191 | 22.78° C | 78% | 1016.1 hPa | 0 mm | - | - | - |
| 1777991888 | 22.78° C | 77% | 1015.9 hPa | 0 mm | - | - | - |
| 1777991586 | 22.78° C | 77% | 1015.9 hPa | 0 mm | - | - | - |
| 1777991282 | 23.33° C | 74% | 1015.9 hPa | 0 mm | - | - | - |
| 1777990979 | 22.78° C | 74% | 1016 hPa | 0 mm | - | - | - |
| 1777990677 | 22.22° C | 76% | 1015.9 hPa | 0 mm | - | - | - |
| 1777990374 | 22.22° C | 73% | 1016 hPa | 0 mm | - | - | - |
| 1777990070 | 21.67° C | 72% | 1016 hPa | 0 mm | - | - | - |
| 1777989766 | 21.67° C | 71% | 1016 hPa | 0 mm | - | - | - |
| 1777989463 | 22.22° C | 68% | 1015.9 hPa | 0 mm | - | - | - |
| 1777989160 | 22.78° C | 66% | 1016 hPa | 0 mm | - | - | - |
| 1777988856 | 22.78° C | 65% | 1015.8 hPa | 0 mm | - | - | - |
| 1777988554 | 22.78° C | 66% | 1015.9 hPa | 0 mm | - | - | - |
| 1777988250 | 21.67° C | 69% | 1015.7 hPa | 0 mm | - | - | - |
| 1777987947 | 21.11° C | 70% | 1015.8 hPa | 0 mm | - | - | - |
| 1777987642 | 21.67° C | 71% | 1015.7 hPa | 0 mm | - | - | - |
| 1777987340 | 21.67° C | 71% | 1015.5 hPa | 0 mm | - | - | - |
| 1777987037 | 22.78° C | 68% | 1015.6 hPa | 0 mm | - | - | - |
| 1777986734 | 23.33° C | 65% | 1015.4 hPa | 0 mm | - | - | - |
* Rain latest hour (hover to see other rain measurements)
** Current wind speed in m/s (hover to see current wind gust speed)